Time;durP1;ratioP1;P1;durP2;ratioP2;P2;SDS_P1;SDS_P2;PMS_P1;PMS_P2;Temp;Humidity;BMP_temperature;BMP_pressure;BME280_temperature;BME280_humidity;BME280_pressure;Samples;Min_cycle;Max_cycle;Signal;HPM_P1;HPM_P2
2022/06/14 00:01:45;;;;;;;0.55;0.35;;;;;;;29.38;22.24;98383.50;5087694;28;20028;-79
2022/06/14 00:04:11;;;;;;;0.30;0.30;;;;;;;29.42;21.85;98384.16;5090896;28;20032;-79
2022/06/14 00:06:37;;;;;;;0.30;0.30;;;;;;;29.34;22.17;98393.38;5088606;28;20030;-79
2022/06/14 00:09:03;;;;;;;0.20;0.20;;;;;;;29.22;22.18;98383.72;5090289;28;20126;-79
2022/06/14 00:11:35;;;;;;;0.55;0.25;;;;;;;28.84;22.37;98394.41;5089382;28;20337;-79
2022/06/14 00:14:04;;;;;;;0.52;0.25;;;;;;;28.74;22.53;98385.09;5090110;28;20046;-79
2022/06/14 00:16:33;;;;;;;0.20;0.20;;;;;;;28.90;22.54;98389.75;5089589;28;20137;-78
2022/06/14 00:19:01;;;;;;;0.35;0.20;;;;;;;29.03;22.50;98398.97;5086537;28;20032;-78
2022/06/14 00:21:28;;;;;;;0.13;0.13;;;;;;;29.10;22.38;98389.44;5091306;28;20123;-79
2022/06/14 00:23:54;;;;;;;0.20;0.20;;;;;;;29.11;22.44;98391.78;5089727;28;20038;-79
2022/06/14 00:26:20;;;;;;;0.17;0.17;;;;;;;29.19;22.20;98387.47;5091396;28;20028;-78
2022/06/14 00:28:46;;;;;;;0.20;0.20;;;;;;;29.09;22.18;98391.47;5088342;28;20032;-79
2022/06/14 00:31:19;;;;;;;0.30;0.30;;;;;;;29.21;22.15;98399.13;5084301;28;20441;-78
2022/06/14 00:33:46;;;;;;;0.22;0.22;;;;;;;29.08;22.22;98392.69;5088476;28;20124;-79
2022/06/14 00:36:34;;;;;;;0.20;0.20;;;;;;;28.90;22.62;98397.44;5087638;28;20059;-78
2022/06/14 00:39:04;;;;;;;0.10;0.10;;;;;;;29.05;22.23;98402.13;5086732;28;20097;-78
2022/06/14 00:41:41;;;;;;;0.10;0.10;;;;;;;29.16;22.25;98411.00;5087773;28;20047;-79
2022/06/14 00:44:13;;;;;;;0.10;0.10;;;;;;;29.23;22.28;98399.44;5089899;28;20036;-79
2022/06/14 00:46:51;;;;;;;0.25;0.20;;;;;;;29.25;21.86;98407.47;5090252;28;20046;-79
2022/06/14 00:49:24;;;;;;;0.30;0.30;;;;;;;29.07;22.39;98405.28;5089554;28;20513;-79
2022/06/14 00:52:32;;;;;;;0.20;0.20;;;;;;;28.84;22.40;98405.72;5093076;28;20036;-79
2022/06/14 00:55:12;;;;;;;0.20;0.20;;;;;;;28.86;22.69;98397.56;5094461;28;20028;-79
2022/06/14 00:58:07;;;;;;;0.20;0.20;;;;;;;28.84;22.42;98410.59;5092127;28;20055;-79
2022/06/14 01:00:39;;;;;;;0.10;0.10;;;;;;;28.89;22.66;98410.81;5096679;28;20051;-79
2022/06/14 01:03:14;;;;;;;0.20;0.20;;;;;;;28.84;22.32;98414.22;5090433;28;20177;-79
2022/06/14 01:06:05;;;;;;;0.30;0.25;;;;;;;28.89;22.48;98413.63;5092947;28;20437;-79
2022/06/14 01:08:49;;;;;;;0.32;0.32;;;;;;;28.68;22.71;98411.56;5091832;28;20032;-79
2022/06/14 01:11:33;;;;;;;0.65;0.25;;;;;;;28.40;22.92;98406.88;5106632;28;20060;-79
2022/06/14 01:14:03;;;;;;;0.10;0.10;;;;;;;28.69;22.39;98411.09;5092609;28;20032;-79
2022/06/14 01:16:31;;;;;;;0.30;0.30;;;;;;;28.81;22.64;98411.50;5089532;28;20047;-78
2022/06/14 01:18:58;;;;;;;0.20;0.20;;;;;;;28.65;22.84;98410.44;5091668;28;20046;-79
2022/06/14 01:21:26;;;;;;;0.32;0.32;;;;;;;28.58;23.03;98419.13;5092545;28;20024;-78
2022/06/14 01:23:52;;;;;;;0.30;0.30;;;;;;;28.77;22.93;98416.50;5094934;28;20111;-79
2022/06/14 01:26:26;;;;;;;0.50;0.50;;;;;;;28.95;22.93;98410.97;5093644;28;20039;-79
2022/06/14 01:29:00;;;;;;;0.30;0.30;;;;;;;29.22;22.40;98417.66;5093740;28;20035;-79
2022/06/14 01:31:30;;;;;;;0.30;0.30;;;;;;;28.91;22.27;98422.44;5093517;28;20028;-79
2022/06/14 01:34:02;;;;;;;0.30;0.30;;;;;;;28.52;22.92;98418.13;5089640;28;20062;-79
2022/06/14 01:36:32;;;;;;;0.30;0.30;;;;;;;28.55;23.09;98422.88;5093585;28;20387;-79
2022/06/14 01:39:02;;;;;;;0.30;0.30;;;;;;;28.72;23.05;98421.50;5092605;28;20415;-79
2022/06/14 01:41:56;;;;;;;0.45;0.45;;;;;;;29.12;22.78;98423.69;5088001;28;20024;-79
2022/06/14 01:44:28;;;;;;;0.30;0.30;;;;;;;29.37;22.19;98421.53;5090509;28;20044;-79
2022/06/14 01:47:18;;;;;;;0.88;0.40;;;;;;;29.04;22.57;98419.53;5090796;28;20064;-78
2022/06/14 01:52:53;;;;;;;0.40;0.40;;;;;;;29.18;22.61;98427.53;5087563;28;20100;-79
2022/06/14 01:55:58;;;;;;;0.65;0.30;;;;;;;29.42;22.66;98432.25;5092792;28;20031;-79
2022/06/14 01:58:41;;;;;;;0.50;0.50;;;;;;;29.68;22.19;98435.72;5091701;28;20080;-79
2022/06/14 02:01:37;;;;;;;0.55;0.55;;;;;;;29.70;22.19;98438.06;5089999;28;20036;-79
2022/06/14 02:04:37;;;;;;;1.70;1.35;;;;;;;29.63;22.41;98435.50;5091339;28;20395;-79
2022/06/14 02:07:24;;;;;;;0.55;0.40;;;;;;;29.28;22.88;98440.47;5094531;28;20027;-79
2022/06/14 02:10:10;;;;;;;0.40;0.40;;;;;;;28.99;23.00;98437.06;5090690;28;20047;-79
2022/06/14 02:12:43;;;;;;;0.45;0.45;;;;;;;29.15;22.83;98443.34;5089622;28;20110;-79
2022/06/14 02:15:32;;;;;;;0.40;0.30;;;;;;;29.04;22.71;98442.16;5091543;28;20040;-79
2022/06/14 02:18:07;;;;;;;0.28;0.28;;;;;;;28.79;23.32;98443.06;5084856;28;20040;-79
2022/06/14 02:21:01;;;;;;;0.40;0.40;;;;;;;29.14;23.12;98441.78;5087123;28;20499;-79
2022/06/14 02:23:34;;;;;;;0.43;0.43;;;;;;;29.27;22.96;98453.84;5093586;28;20089;-79
2022/06/14 02:26:29;;;;;;;0.40;0.40;;;;;;;29.43;22.90;98452.81;5099451;28;20066;-79
2022/06/14 02:29:20;;;;;;;0.52;0.52;;;;;;;29.60;23.26;98457.03;5101598;28;20100;-79
2022/06/14 02:31:50;;;;;;;0.85;0.85;;;;;;;29.76;23.08;98459.66;5092685;28;20032;-79
2022/06/14 02:34:39;;;;;;;1.33;0.70;;;;;;;29.82;23.19;98463.50;5087518;28;20032;-78
2022/06/14 02:37:20;;;;;;;0.98;0.70;;;;;;;29.97;23.30;98461.66;5091133;28;20058;-80
2022/06/14 02:40:21;;;;;;;0.98;0.88;;;;;;;29.69;23.22;98461.94;5088574;28;20028;-79
2022/06/14 02:43:13;;;;;;;0.70;0.70;;;;;;;29.42;23.74;98473.91;5089064;28;20069;-79
2022/06/14 02:45:46;;;;;;;6.75;0.57;;;;;;;29.69;23.46;98476.09;5091856;28;20047;-79
2022/06/14 02:48:38;;;;;;;0.70;0.70;;;;;;;30.02;23.18;98478.03;5084635;28;20028;-79
2022/06/14 02:51:43;;;;;;;0.40;0.40;;;;;;;30.12;23.03;98484.53;5091081;28;20059;-79
2022/06/14 02:54:21;;;;;;;0.77;0.70;;;;;;;30.15;23.14;98483.63;5026966;28;20041;-79
2022/06/14 02:56:49;;;;;;;1.10;1.00;;;;;;;30.09;23.38;98488.28;5082964;28;20079;-79
2022/06/14 02:59:42;;;;;;;2.95;0.85;;;;;;;30.03;23.50;98493.78;5091147;28;20110;-79
2022/06/14 03:02:18;;;;;;;0.85;0.75;;;;;;;30.26;23.01;98492.47;5091449;28;20094;-79
2022/06/14 03:04:50;;;;;;;1.13;0.70;;;;;;;30.39;22.87;98492.38;5089451;28;20092;-79
2022/06/14 03:07:23;;;;;;;0.75;0.60;;;;;;;30.20;22.95;98499.97;5087316;28;20101;-79
2022/06/14 03:09:50;;;;;;;1.70;0.90;;;;;;;30.06;23.40;98492.84;5086771;28;20152;-80
2022/06/14 03:12:47;;;;;;;0.75;0.75;;;;;;;29.90;23.44;98506.44;5092396;28;20111;-79
2022/06/14 03:15:44;;;;;;;0.75;0.75;;;;;;;29.94;23.41;98507.88;5088260;28;20048;-79
2022/06/14 03:18:20;;;;;;;7.13;0.93;;;;;;;30.04;23.34;98508.72;5092511;28;20554;-79
2022/06/14 03:20:55;;;;;;;2.35;0.80;;;;;;;30.10;23.48;98509.72;5087193;28;20035;-79
2022/06/14 03:23:44;;;;;;;1.75;1.08;;;;;;;30.09;23.81;98510.94;5085082;28;20112;-79
2022/06/14 03:26:23;;;;;;;1.27;1.15;;;;;;;29.75;24.34;98513.88;5084781;28;20040;-79
2022/06/14 03:29:09;;;;;;;2.28;1.10;;;;;;;29.89;23.79;98510.53;5085289;28;20733;-79
2022/06/14 03:31:50;;;;;;;2.67;1.25;;;;;;;30.12;24.06;98507.19;5084302;28;20044;-79
2022/06/14 03:34:27;;;;;;;2.58;1.27;;;;;;;30.16;24.27;98524.84;5082092;28;20032;-79
2022/06/14 03:36:54;;;;;;;1.15;1.00;;;;;;;30.38;24.27;98524.81;5081701;28;20123;-79
2022/06/14 03:39:25;;;;;;;1.20;1.10;;;;;;;30.56;24.07;98517.16;5080562;28;20031;-79
2022/06/14 03:41:53;;;;;;;0.95;0.88;;;;;;;30.56;23.79;98511.47;5081403;28;20037;-79
2022/06/14 03:44:22;;;;;;;1.45;0.80;;;;;;;30.57;24.31;98518.72;5085569;28;20059;-79
2022/06/14 03:47:10;;;;;;;2.63;1.50;;;;;;;30.59;24.31;98521.09;5083784;28;20047;-79
2022/06/14 03:49:40;;;;;;;2.88;2.00;;;;;;;30.25;25.04;98527.69;5086532;28;20040;-79
2022/06/14 03:52:30;;;;;;;2.70;1.30;;;;;;;30.14;25.15;98521.69;5084022;28;20020;-79
2022/06/14 03:55:23;;;;;;;3.22;1.15;;;;;;;30.38;25.06;98533.31;5094182;28;20035;-79
2022/06/14 03:58:08;;;;;;;1.48;1.15;;;;;;;30.26;25.63;98542.66;5082917;28;20135;-80
2022/06/14 04:00:43;;;;;;;2.50;1.85;;;;;;;29.88;26.31;98548.59;5084661;28;20147;-79
2022/06/14 04:03:37;;;;;;;2.53;1.92;;;;;;;29.82;26.13;98541.97;5081302;28;20150;-79
2022/06/14 04:06:22;;;;;;;2.58;1.85;;;;;;;29.58;26.53;98549.31;5085214;28;20036;-79
2022/06/14 04:08:57;;;;;;;6.50;2.05;;;;;;;29.98;26.74;98545.38;5085716;28;20055;-79
2022/06/14 04:11:26;;;;;;;2.05;1.83;;;;;;;30.07;27.84;98550.28;5081405;28;20024;-79
2022/06/14 04:14:04;;;;;;;3.20;2.15;;;;;;;30.09;28.00;98547.78;5085573;28;20042;-79
2022/06/14 04:17:13;;;;;;;5.82;2.67;;;;;;;29.93;27.32;98553.66;5082893;28;20052;-80
2022/06/14 04:19:39;;;;;;;2.40;2.20;;;;;;;30.00;27.44;98553.38;5083410;28;20067;-80
2022/06/14 04:22:24;;;;;;;4.85;3.17;;;;;;;29.51;27.66;98558.06;5087706;28;20044;-81
2022/06/14 04:25:06;;;;;;;2.67;2.47;;;;;;;30.10;27.55;98555.03;5085996;28;20038;-78
2022/06/14 04:28:06;;;;;;;3.25;2.47;;;;;;;30.06;26.97;98557.97;5088450;28;20036;-79
2022/06/14 04:30:45;;;;;;;5.13;3.40;;;;;;;29.69;27.12;98552.53;5085029;28;20052;-78
2022/06/14 04:33:26;;;;;;;3.45;2.00;;;;;;;29.71;27.56;98552.88;5084789;28;20059;-78
2022/06/14 04:36:14;;;;;;;5.22;2.60;;;;;;;29.32;27.86;98563.56;5092098;28;20414;-78
2022/06/14 04:38:57;;;;;;;3.10;2.25;;;;;;;29.79;27.25;98569.16;5083930;28;20093;-78
2022/06/14 04:41:31;;;;;;;5.13;2.25;;;;;;;29.56;27.75;98558.25;5099729;28;20032;-78
2022/06/14 04:44:08;;;;;;;2.80;2.00;;;;;;;29.87;27.40;98559.13;5095194;28;20036;-76
2022/06/14 04:46:47;;;;;;;3.90;2.00;;;;;;;29.98;27.32;98564.41;5086315;28;20060;-76
2022/06/14 04:49:17;;;;;;;3.08;2.30;;;;;;;30.07;28.02;98556.75;5087317;28;20028;-76
2022/06/14 04:51:49;;;;;;;3.78;2.13;;;;;;;30.21;28.18;98561.06;5087630;28;20059;-76
2022/06/14 04:54:23;;;;;;;4.57;2.30;;;;;;;30.36;27.41;98562.13;5084032;28;20476;-76
2022/06/14 04:57:31;;;;;;;4.70;2.17;;;;;;;30.49;27.45;98557.13;5086643;28;20122;-77
2022/06/14 05:00:10;;;;;;;2.20;1.60;;;;;;;30.84;28.46;98559.75;5086681;28;20040;-76
2022/06/14 05:02:45;;;;;;;3.53;1.92;;;;;;;31.20;27.72;98568.34;5084457;28;20025;-77
2022/06/14 05:05:23;;;;;;;4.03;1.80;;;;;;;31.54;27.44;98565.22;5086523;28;20028;-76
2022/06/14 05:08:06;;;;;;;3.30;1.80;;;;;;;32.08;26.92;98572.91;5085125;28;20036;-77
2022/06/14 05:11:05;;;;;;;3.45;1.90;;;;;;;31.87;25.81;98574.69;5086629;28;20032;-77
2022/06/14 05:13:46;;;;;;;2.47;1.63;;;;;;;31.53;26.33;98572.16;5076466;28;20113;-78
2022/06/14 05:16:23;;;;;;;3.67;1.42;;;;;;;31.95;26.20;98584.44;5084951;28;20044;-77
2022/06/14 05:19:09;;;;;;;3.33;2.13;;;;;;;32.05;25.64;98574.66;5082370;28;20107;-77
2022/06/14 05:22:17;;;;;;;3.95;1.83;;;;;;;31.31;26.03;98580.81;5085569;28;20036;-78
2022/06/14 05:24:43;;;;;;;4.45;2.15;;;;;;;30.32;27.45;98580.44;5027732;28;20030;-78
2022/06/14 05:27:35;;;;;;;2.90;1.80;;;;;;;30.34;28.41;98583.66;5026398;28;20116;-77
2022/06/14 05:30:14;;;;;;;2.20;1.60;;;;;;;29.88;28.23;98574.88;5067927;28;20361;-78
2022/06/14 05:32:58;;;;;;;8.80;2.65;;;;;;;30.08;27.88;98583.03;5086897;28;20041;-77
2022/06/14 05:35:38;;;;;;;3.42;1.73;;;;;;;29.70;28.56;98585.25;5087126;28;20048;-78
2022/06/14 05:38:36;;;;;;;2.50;1.48;;;;;;;30.67;28.34;98584.72;5088193;28;20046;-76
2022/06/14 05:41:15;;;;;;;4.00;1.95;;;;;;;30.35;27.70;98586.03;5089798;28;20028;-76
2022/06/14 05:43:49;;;;;;;2.13;1.50;;;;;;;31.13;27.12;98583.63;5094213;28;20032;-78
2022/06/14 05:46:26;;;;;;;4.53;1.73;;;;;;;31.18;26.88;98580.16;5093839;28;20039;-77
2022/06/14 05:49:05;;;;;;;4.68;2.13;;;;;;;30.85;27.14;98575.50;5094206;28;20042;-77
2022/06/14 05:52:06;;;;;;;7.28;2.13;;;;;;;30.88;26.56;98585.91;5087527;28;20111;-77
2022/06/14 05:54:43;;;;;;;3.50;1.60;;;;;;;31.19;26.14;98580.94;5075789;28;20469;-77
2022/06/14 05:57:47;;;;;;;4.15;2.45;;;;;;;29.81;27.44;98586.47;5095584;28;20059;-77
2022/06/14 06:00:51;;;;;;;6.05;2.75;;;;;;;29.24;28.70;98586.91;5086745;28;20063;-77
2022/06/14 06:03:36;;;;;;;3.70;2.33;;;;;;;29.64;28.13;98585.03;5090369;28;20040;-77
2022/06/14 06:06:09;;;;;;;3.90;1.88;;;;;;;29.59;28.58;98584.84;5095563;28;20024;-77
2022/06/14 06:09:07;;;;;;;3.65;2.00;;;;;;;30.78;28.13;98594.38;5095952;28;20064;-77
2022/06/14 06:12:06;;;;;;;6.53;2.00;;;;;;;30.34;27.17;98583.66;5094696;28;20020;-77
2022/06/14 06:14:41;;;;;;;3.80;1.95;;;;;;;29.69;27.46;98584.44;5076414;28;20045;-77
2022/06/14 06:17:15;;;;;;;7.32;2.55;;;;;;;30.08;27.46;98586.63;5084374;28;20085;-77
2022/06/14 06:19:47;;;;;;;2.90;2.20;;;;;;;29.98;27.46;98585.00;5095289;28;20024;-76
2022/06/14 06:22:36;;;;;;;3.17;1.77;;;;;;;30.35;27.15;98586.03;5095959;28;20480;-76
2022/06/14 06:25:13;;;;;;;3.95;1.73;;;;;;;31.36;26.67;98590.75;5075368;28;20507;-76
2022/06/14 06:27:46;;;;;;;4.18;2.13;;;;;;;32.07;25.33;98591.22;5075642;28;20361;-76
2022/06/14 06:30:19;;;;;;;3.30;1.63;;;;;;;32.90;24.83;98595.38;5075168;28;20021;-76
2022/06/14 06:32:46;;;;;;;4.65;2.13;;;;;;;32.34;24.13;98590.38;5084290;28;20090;-77
2022/06/14 06:35:13;;;;;;;4.03;1.90;;;;;;;31.20;24.66;98599.56;5095184;28;20021;-77
2022/06/14 06:37:49;;;;;;;4.72;1.83;;;;;;;31.32;25.39;98604.31;5095625;28;20040;-76
2022/06/14 06:40:22;;;;;;;3.67;1.80;;;;;;;30.44;27.07;98605.09;5095337;28;20039;-76
2022/06/14 06:43:09;;;;;;;3.47;1.80;;;;;;;30.71;27.23;98603.16;5094893;28;20097;-76
2022/06/14 06:45:41;;;;;;;3.22;1.80;;;;;;;31.57;24.56;98598.38;5092313;28;20483;-76
2022/06/14 06:48:17;;;;;;;5.47;1.67;;;;;;;32.01;24.90;98601.66;5094127;28;20028;-76
2022/06/14 06:50:47;;;;;;;10.23;2.30;;;;;;;31.80;23.90;98600.56;5093751;28;20081;-76
2022/06/14 06:53:13;;;;;;;4.37;1.47;;;;;;;31.41;24.24;98612.84;5094867;28;20028;-76
2022/06/14 06:55:57;;;;;;;3.95;1.75;;;;;;;30.07;26.34;98613.38;5094920;28;20285;-76
2022/06/14 06:58:44;;;;;;;3.80;1.80;;;;;;;30.24;27.21;98618.84;5095252;28;20032;-76
2022/06/14 07:01:16;;;;;;;4.10;1.67;;;;;;;30.41;26.34;98617.41;5095347;28;20040;-76
2022/06/14 07:04:05;;;;;;;2.55;1.70;;;;;;;30.65;25.01;98622.06;5094206;28;20043;-76
2022/06/14 07:06:42;;;;;;;3.22;1.80;;;;;;;30.77;24.68;98621.16;5094862;28;20032;-77
2022/06/14 07:09:46;;;;;;;2.05;1.45;;;;;;;31.08;24.36;98620.34;5094563;28;20032;-77
2022/06/14 07:12:20;;;;;;;4.32;1.55;;;;;;;29.61;27.09;98619.94;5094979;28;20020;-76
2022/06/14 07:14:53;;;;;;;3.17;1.80;;;;;;;30.14;25.97;98612.31;5094390;28;20403;-76
2022/06/14 07:17:38;;;;;;;3.58;1.40;;;;;;;30.29;25.45;98613.38;5073827;28;20032;-76
2022/06/14 07:20:12;;;;;;;4.15;1.75;;;;;;;30.48;25.80;98623.53;5074482;28;20546;-77
2022/06/14 07:22:44;;;;;;;3.05;1.60;;;;;;;30.56;24.85;98619.19;5089789;28;20028;-77
2022/06/14 07:25:23;;;;;;;1.98;1.60;;;;;;;31.34;24.33;98618.81;5094283;28;20024;-77
2022/06/14 07:28:15;;;;;;;2.75;1.40;;;;;;;30.20;25.21;98613.28;5093945;28;20028;-77
2022/06/14 07:30:52;;;;;;;4.72;1.98;;;;;;;29.19;27.21;98616.56;5092682;28;20074;-77
2022/06/14 07:33:20;;;;;;;1.83;1.50;;;;;;;30.09;25.74;98612.91;5094010;28;20519;-77
2022/06/14 07:35:56;;;;;;;2.90;1.98;;;;;;;30.54;24.67;98618.88;5093670;28;20057;-77
2022/06/14 07:38:28;;;;;;;3.63;1.92;;;;;;;31.13;23.87;98614.06;5094098;28;20028;-77
2022/06/14 07:41:11;;;;;;;6.32;1.40;;;;;;;30.84;24.62;98617.25;5094340;28;20469;-77
2022/06/14 07:44:01;;;;;;;3.63;1.20;;;;;;;31.18;25.32;98619.88;5072444;28;20391;-77
2022/06/14 07:46:52;;;;;;;3.05;1.10;;;;;;;30.58;25.34;98621.53;5090631;28;20476;-77
2022/06/14 07:49:39;;;;;;;3.00;1.30;;;;;;;31.17;23.66;98620.34;5092710;28;20032;-77
2022/06/14 07:52:29;;;;;;;4.05;1.10;;;;;;;30.97;24.48;98623.59;5078393;28;20043;-77
2022/06/14 07:55:25;;;;;;;5.10;2.53;;;;;;;31.17;22.80;98626.81;5073922;28;20043;-77
2022/06/14 07:58:00;;;;;;;4.40;1.55;;;;;;;30.78;22.96;98619.91;5071661;28;20044;-77
2022/06/14 08:03:34;;;;;;;2.92;1.20;;;;;;;31.80;21.71;98614.75;5092925;28;20047;-78
2022/06/14 08:06:13;;;;;;;3.05;1.27;;;;;;;31.66;22.03;98617.44;5093805;28;20028;-77
2022/06/14 08:08:43;;;;;;;2.17;1.17;;;;;;;30.48;24.10;98617.88;5093693;28;20036;-78
2022/06/14 08:11:28;;;;;;;1.20;0.85;;;;;;;31.65;22.83;98628.00;5093941;28;20036;-77
2022/06/14 08:14:00;;;;;;;3.35;0.93;;;;;;;32.30;22.38;98618.19;5093928;28;20035;-78
2022/06/14 08:16:28;;;;;;;0.88;0.82;;;;;;;30.89;24.12;98625.19;5091619;28;20051;-77
2022/06/14 08:19:09;;;;;;;1.85;1.02;;;;;;;32.49;22.79;98620.50;5093816;28;20044;-77
2022/06/14 08:21:41;;;;;;;1.17;0.70;;;;;;;32.52;21.73;98628.09;5092848;28;20541;-77
2022/06/14 08:24:23;;;;;;;1.83;0.70;;;;;;;32.39;21.39;98621.00;5093551;28;20157;-77
2022/06/14 08:27:05;;;;;;;3.17;1.00;;;;;;;30.71;24.07;98620.19;5093496;28;20054;-77
2022/06/14 08:29:57;;;;;;;1.13;1.00;;;;;;;32.26;22.46;98621.19;5093164;28;20024;-78
2022/06/14 08:32:37;;;;;;;3.05;0.80;;;;;;;32.40;22.03;98614.03;5092911;28;20035;-78
2022/06/14 08:35:06;;;;;;;1.70;0.80;;;;;;;31.62;22.11;98613.97;5093737;28;20039;-77
2022/06/14 08:38:07;;;;;;;2.05;1.23;;;;;;;31.55;21.90;98615.09;5093578;28;20034;-77
2022/06/14 08:40:42;;;;;;;2.88;0.95;;;;;;;31.15;22.19;98600.97;5077501;28;20051;-77
2022/06/14 08:43:10;;;;;;;1.85;1.10;;;;;;;30.52;22.76;98598.72;5093090;28;20364;-77
2022/06/14 08:46:07;;;;;;;3.42;1.10;;;;;;;31.41;22.52;98595.81;5092995;28;20032;-77
2022/06/14 08:48:42;;;;;;;4.40;0.93;;;;;;;30.13;24.51;98604.28;5091594;28;20075;-77
2022/06/14 08:51:27;;;;;;;2.00;1.13;;;;;;;30.98;22.38;98601.72;5092474;28;20039;-77
2022/06/14 08:54:13;;;;;;;1.48;0.90;;;;;;;31.78;21.75;98594.56;5093268;28;20492;-77
2022/06/14 08:57:10;;;;;;;1.98;1.45;;;;;;;31.44;21.50;98585.59;5092763;28;20506;-77
2022/06/14 08:59:45;;;;;;;8.18;1.17;;;;;;;30.83;23.15;98589.38;5092698;28;20043;-77
2022/06/14 09:02:26;;;;;;;1.75;0.80;;;;;;;31.39;23.06;98586.97;5092023;28;20031;-77
2022/06/14 09:05:10;;;;;;;;;;;;;;;31.13;23.08;98582.84;5093864;28;20368;-77
2022/06/14 09:07:55;;;;;;;0.80;0.70;;;;;;;30.73;23.28;98577.22;5092928;28;19916;-77
2022/06/14 09:10:37;;;;;;;2.97;1.00;;;;;;;31.51;23.02;98571.09;5095595;28;20043;-77
2022/06/14 09:13:25;;;;;;;1.30;0.80;;;;;;;32.03;22.38;98565.84;5096065;28;20506;-77
2022/06/14 09:16:33;;;;;;;0.90;0.70;;;;;;;32.80;19.07;98566.19;5094268;28;20089;-77
2022/06/14 09:19:17;;;;;;;2.83;0.85;;;;;;;32.46;20.45;98561.75;5096336;28;20066;-78
2022/06/14 09:21:56;;;;;;;1.10;0.90;;;;;;;31.83;20.88;98564.75;5081680;28;20033;-78
2022/06/14 09:24:54;;;;;;;1.75;0.95;;;;;;;31.82;20.88;98569.63;5088192;28;20020;-77
2022/06/14 09:27:53;;;;;;;0.73;0.65;;;;;;;31.91;19.76;98569.59;5068621;28;20036;-77
2022/06/14 09:30:41;;;;;;;4.20;1.15;;;;;;;32.11;21.04;98576.88;5076425;28;20043;-78
2022/06/14 09:33:24;;;;;;;1.65;0.70;;;;;;;31.97;21.24;98579.09;5095819;28;20477;-77
2022/06/14 09:36:27;;;;;;;3.72;0.70;;;;;;;32.77;20.81;98572.81;5097212;28;20416;-78
2022/06/14 09:39:32;;;;;;;1.77;0.50;;;;;;;32.59;19.98;98568.03;5094864;28;20117;-78
2022/06/14 09:42:25;;;;;;;4.13;0.80;;;;;;;32.54;20.56;98568.69;5082278;27;20040;-78
2022/06/14 09:45:16;;;;;;;1.52;1.05;;;;;;;32.24;21.07;98583.13;5096416;28;20507;-78
2022/06/14 09:48:18;;;;;;;1.33;0.50;;;;;;;32.36;21.29;98582.16;5114602;28;20040;-78
2022/06/14 09:51:05;;;;;;;1.13;0.50;;;;;;;32.79;19.89;98581.69;5075077;28;20380;-78
2022/06/14 09:53:33;;;;;;;1.08;0.50;;;;;;;32.59;20.85;98587.94;5096388;28;20077;-78
2022/06/14 09:56:08;;;;;;;0.70;0.60;;;;;;;32.17;21.10;98589.16;5095842;28;20153;-78
2022/06/14 09:58:40;;;;;;;1.13;0.77;;;;;;;32.30;19.83;98587.69;5095904;28;20036;-78
2022/06/14 10:01:48;;;;;;;0.82;0.50;;;;;;;32.52;20.09;98576.13;5094419;28;20127;-78
2022/06/14 10:04:45;;;;;;;1.15;0.63;;;;;;;32.16;20.30;98590.44;5096034;28;20024;-78
2022/06/14 10:07:39;;;;;;;2.53;0.60;;;;;;;32.39;20.85;98587.69;5096292;28;20088;-78
2022/06/14 10:10:46;;;;;;;1.80;0.60;;;;;;;31.19;20.53;98580.94;5096102;28;20036;-78
2022/06/14 10:13:37;;;;;;;1.08;0.70;;;;;;;30.63;22.81;98582.06;5096060;28;20031;-78
2022/06/14 10:16:25;;;;;;;1.70;0.63;;;;;;;31.51;21.76;98590.97;5094058;28;20127;-78
2022/06/14 10:18:57;;;;;;;1.15;0.50;;;;;;;31.60;21.68;98586.03;5095374;28;20032;-77
2022/06/14 10:21:33;;;;;;;1.00;0.52;;;;;;;31.19;21.22;98587.41;5095025;28;20071;-78
2022/06/14 10:24:18;;;;;;;1.45;0.55;;;;;;;31.69;20.78;98580.38;5095681;28;20028;-78
2022/06/14 10:29:58;;;;;;;0.52;0.50;;;;;;;31.47;22.03;98587.47;5095313;28;20617;-78
2022/06/14 10:32:57;;;;;;;0.70;0.60;;;;;;;32.11;20.60;98589.03;5096466;28;20032;-78
2022/06/14 10:35:37;;;;;;;1.77;0.70;;;;;;;32.60;19.86;98580.19;5094591;28;20559;-77
2022/06/14 10:38:13;;;;;;;4.63;0.60;;;;;;;33.06;19.97;98592.94;5091394;28;20055;-78
2022/06/14 10:40:54;;;;;;;1.52;0.40;;;;;;;32.43;20.64;98593.97;5093935;28;20043;-78
2022/06/14 10:43:32;;;;;;;1.40;0.38;;;;;;;31.95;20.97;98589.34;5095244;28;20537;-79
2022/06/14 10:46:07;;;;;;;1.65;0.40;;;;;;;31.55;20.70;98583.06;5095212;28;20115;-77
2022/06/14 10:49:07;;;;;;;0.50;0.40;;;;;;;31.19;21.02;98587.41;5092516;28;20118;-78
2022/06/14 10:51:55;;;;;;;1.05;0.40;;;;;;;31.93;20.85;98586.97;5092972;28;20109;-78
2022/06/14 10:54:58;;;;;;;1.40;0.50;;;;;;;32.50;19.75;98584.34;5095118;28;20039;-78
2022/06/14 10:57:47;;;;;;;0.85;0.47;;;;;;;33.19;20.68;98596.31;5095075;28;20040;-78
2022/06/14 11:00:42;;;;;;;0.50;0.30;;;;;;;34.15;18.96;98592.06;5093738;28;20028;-78
2022/06/14 11:03:27;;;;;;;1.08;0.30;;;;;;;33.86;18.58;98592.81;5089052;28;20403;-78
2022/06/14 11:06:20;;;;;;;0.30;0.30;;;;;;;34.58;17.95;98585.59;5094676;28;20032;-78
2022/06/14 11:09:31;;;;;;;0.40;0.30;;;;;;;34.13;17.67;98582.44;5094366;28;20506;-78
2022/06/14 11:11:59;;;;;;;0.32;0.30;;;;;;;33.69;19.49;98588.06;5052505;28;20535;-78
2022/06/14 11:14:36;;;;;;;0.68;0.40;;;;;;;33.36;19.34;98588.94;5086480;28;20040;-78
2022/06/14 11:17:11;;;;;;;1.50;0.30;;;;;;;33.83;18.64;98588.09;5086814;28;20064;-78
2022/06/14 11:19:50;;;;;;;1.35;0.47;;;;;;;33.86;19.15;98587.13;5081360;28;20028;-78
2022/06/14 11:22:45;;;;;;;0.35;0.35;;;;;;;34.85;17.73;98575.06;5094540;28;20093;-78
2022/06/14 11:25:41;;;;;;;0.47;0.22;;;;;;;35.66;17.43;98576.72;5085735;28;20047;-78
2022/06/14 11:28:24;;;;;;;0.35;0.30;;;;;;;34.03;18.93;98578.88;5094672;28;20035;-78
2022/06/14 11:31:18;;;;;;;1.55;1.02;;;;;;;35.36;18.39;98578.13;5093634;28;20591;-78
2022/06/14 11:33:51;;;;;;;0.98;0.40;;;;;;;34.40;17.78;98574.34;5092787;28;20049;-78
2022/06/14 11:36:46;;;;;;;0.88;0.52;;;;;;;34.28;17.31;98574.66;5094462;28;20040;-78
2022/06/14 11:39:27;;;;;;;0.93;0.50;;;;;;;33.82;17.22;98572.25;5093781;28;20430;-78
2022/06/14 11:41:54;;;;;;;0.40;0.30;;;;;;;32.41;19.63;98585.13;5094419;28;20105;-78
2022/06/14 11:44:41;;;;;;;0.60;0.38;;;;;;;32.45;19.01;98582.91;5094014;28;20111;-78
2022/06/14 11:47:29;;;;;;;1.58;0.43;;;;;;;32.52;18.48;98578.97;5093306;28;20032;-78
2022/06/14 11:50:34;;;;;;;0.85;0.32;;;;;;;31.99;19.29;98578.63;5073789;28;20044;-77
2022/06/14 11:53:35;;;;;;;0.40;0.30;;;;;;;32.93;19.39;98574.50;5073893;28;20078;-78
2022/06/14 11:56:22;;;;;;;1.20;0.40;;;;;;;33.59;17.92;98566.63;5074928;28;20060;-78
2022/06/14 11:59:28;;;;;;;1.40;0.40;;;;;;;33.86;16.81;98563.53;5093670;28;20023;-78
2022/06/14 12:02:12;;;;;;;0.35;0.30;;;;;;;31.96;20.51;98571.03;5091627;28;20093;-78
2022/06/14 12:05:04;;;;;;;0.32;0.22;;;;;;;32.56;18.52;98580.34;5093721;28;20085;-78
2022/06/14 12:07:40;;;;;;;4.10;1.00;;;;;;;32.69;17.88;98561.03;5092976;28;20040;-78
2022/06/14 12:10:32;;;;;;;0.65;0.20;;;;;;;33.33;18.18;98569.97;5093659;28;20036;-78
2022/06/14 12:13:04;;;;;;;0.30;0.30;;;;;;;34.41;17.76;98561.69;5092333;28;20028;-78
2022/06/14 12:15:42;;;;;;;0.45;0.25;;;;;;;34.88;17.45;98560.59;5072841;28;20135;-78
2022/06/14 12:18:13;;;;;;;0.40;0.40;;;;;;;34.40;17.30;98565.78;5073471;28;20033;-78
2022/06/14 12:20:51;;;;;;;1.05;0.30;;;;;;;34.89;16.47;98572.81;5073564;28;20502;-78
2022/06/14 12:23:35;;;;;;;0.82;0.30;;;;;;;34.20;17.94;98571.44;5093153;28;20395;-78
2022/06/14 12:26:37;;;;;;;0.70;0.35;;;;;;;33.99;16.96;98569.72;5093835;28;20035;-78
2022/06/14 12:29:24;;;;;;;0.40;0.30;;;;;;;33.64;17.79;98571.66;5093401;28;20020;-78
2022/06/14 12:31:57;;;;;;;0.65;0.30;;;;;;;33.86;17.22;98572.88;5093238;28;20071;-78
2022/06/14 12:34:27;;;;;;;0.50;0.30;;;;;;;33.92;18.47;98568.06;5093501;28;20035;-78
2022/06/14 12:37:08;;;;;;;0.20;0.20;;;;;;;33.54;18.46;98578.72;5093329;28;20040;-78
2022/06/14 12:40:03;;;;;;;0.73;0.28;;;;;;;34.05;17.62;98562.09;5093497;28;20032;-78
2022/06/14 12:42:38;;;;;;;2.13;0.30;;;;;;;33.80;19.00;98566.28;5092425;28;20115;-78
2022/06/14 12:45:20;;;;;;;0.85;0.20;;;;;;;33.66;17.88;98563.38;5096250;28;20060;-78
2022/06/14 12:48:07;;;;;;;0.63;0.30;;;;;;;32.90;18.75;98569.75;5096083;28;20399;-78
2022/06/14 12:50:44;;;;;;;0.95;0.30;;;;;;;32.75;18.94;98575.38;5097262;28;20032;-78
2022/06/14 12:53:19;;;;;;;1.15;0.50;;;;;;;32.77;18.59;98578.50;5096954;28;20043;-78